Nearby METAR Reports

 

KMGY - Dayton, Ohio, USA
Distance from station: N 3mi, 5km
Updated: Wed, 18-Jul-2018 7:53pm EDT
Few Clouds
Few Clouds
 Wind from E
Wind: E 6 mph , 9 km/h
Temperature: 81°F , 27°C
Heat Index: 81°F , 27°C
Dew Point: 55°F , 13°C
Humidity: 42%
Barometer: 30.01 inHg , 1016.3 hPa
Clouds: Few Clouds
Visibility: 10 miles , 16 km
Cloud details: Few Clouds 6500 ft
2018/07/18 23:53 KMGY 182353Z AUTO 10005KT 10SM FEW065 27/13 A3001 RMK AO2 SLP155 T02670128 10294 20261 56007
KMWO - Middletown/Hook, Ohio, USA
Distance from station: W 9mi, 14km
Updated: Wed, 18-Jul-2018 7:55pm EDT
Clear
Clear
 Wind from E
Wind: E 8 mph , 13 km/h
Temperature: 81°F , 27°C
Heat Index: 81°F , 27°C
Dew Point: 55°F , 13°C
Humidity: 42%
Barometer: 30.01 inHg , 1016.3 hPa
Clouds: Clear
Visibility: 10 miles , 16 km
2018/07/18 23:55 KMWO 182355Z AUTO 08007KT 10SM CLR 27/13 A3001 RMK AO2 T02750131 10308 20274 403080157
 
KHAO - Hamilton, Ohio, USA
Distance from station: SW 20mi, 32km
Updated: Wed, 18-Jul-2018 7:53pm EDT
Clear
Clear
 Wind from ENE
Wind: ENE 7 mph , 11 km/h
Temperature: 82°F , 28°C
Heat Index: 81°F , 27°C
Dew Point: 55°F , 13°C
Humidity: 40%
Barometer: 30.01 inHg , 1016.3 hPa
Clouds: Clear
Visibility: 10 miles , 16 km
2018/07/18 23:53 KHAO 182353Z AUTO 07006KT 10SM CLR 28/13 A3001 RMK AO2 SLP156 T02830128 10311 20278 55006
KFFO - Wright Paterson, Ohio, USA
Distance from station: NNE 21mi, 34km
Updated: Wed, 18-Jul-2018 7:56pm EDT
Clear
Clear
 Wind from ENE
Wind: ENE 6 mph , 9 km/h
Temperature: 81°F , 27°C
Heat Index: 81°F , 27°C
Dew Point: 57°F , 14°C
Humidity: 45%
Barometer: 30.02 inHg , 1016.6 hPa
Clouds: Clear
Visibility: 10 miles , 16 km
2018/07/18 23:56 KFFO 182356Z AUTO 07005KT 10SM CLR 27/14 A3002 RMK AO2 SLP163 T02650139 10287 20265 56008 $
 
KDAY - Dayton, Ohio, USA
Distance from station: N 24mi, 39km
Updated: Wed, 18-Jul-2018 7:56pm EDT
Few Clouds
Few Clouds
 Wind from NE
Wind: NE 8 mph , 13 km/h
Temperature: 79°F , 26°C
Dew Point: 55°F , 13°C
Humidity: 45%
Barometer: 30.03 inHg , 1016.9 hPa
Clouds: Few Clouds
Visibility: 10 miles , 16 km
Cloud details: Few Clouds 6500 ft
2018/07/18 23:56 KDAY 182356Z 05007KT 10SM FEW065 26/13 A3003 RMK AO2 SLP163 T02560128 10283 20256 56008
KILN - Wilmington, Ohio, USA
Distance from station: ESE 25mi, 39km
Updated: Wed, 18-Jul-2018 7:54pm EDT
Clear
Clear
 Wind from E
Wind: E 5 mph , 7 km/h
Temperature: 77°F , 25°C
Dew Point: 57°F , 14°C
Humidity: 51%
Barometer: 30.02 inHg , 1016.6 hPa
Clouds: Clear
Visibility: 10 miles , 16 km
2018/07/18 23:54 KILN 182354Z AUTO 08004KT 10SM CLR 25/14 A3002 RMK AO2 SLP159 T02500144 10283 20250 56006
 
KSGH - Springfield Muni, Ohio, USA
Distance from station: NE 29mi, 46km
Updated: Wed, 18-Jul-2018 7:56pm EDT

 Wind from E
Wind: E 3 mph , 6 km/h
Temperature: 77°F , 25°C
Dew Point: 59°F , 15°C
Humidity: 54%
Barometer: 30.03 inHg , 1016.9 hPa
Visibility: 10 miles , 16 km
2018/07/18 23:56 KSGH 182356Z AUTO 09003KT 10SM 25/15 A3003 RMK AO2 SLP165 T02500150 10272 20250 56009 $
KI69 - Batavia, Ohio, USA
Distance from station: S 32mi, 52km
Updated: Wed, 18-Jul-2018 8:15pm EDT
Clear
Clear
 Wind from ENE
Wind: ENE 5 mph , 7 km/h
Temperature: 79°F , 26°C
Dew Point: 55°F , 13°C
Humidity: 45%
Barometer: 30.02 inHg , 1016.6 hPa
Clouds: Clear
Visibility: 10 miles , 16 km
2018/07/19 00:15 KI69 190015Z AUTO 07004KT 10SM CLR 26/13 A3002 RMK AO2 T02630125
 
KLUK - Cincinnat/Lunken, Ohio, USA
Distance from station: SSW 33mi, 53km
Updated: Wed, 18-Jul-2018 7:53pm EDT
Clear
Clear
 Wind from E
Wind: E 7 mph , 11 km/h
Temperature: 82°F , 28°C
Heat Index: 82°F , 28°C
Dew Point: 61°F , 16°C
Humidity: 48%
Barometer: 30.00 inHg , 1015.9 hPa
Clouds: Clear
Visibility: 10 miles , 16 km
2018/07/18 23:53 KLUK 182353Z 09006KT 10SM CLR 28/16 A3000 RMK AO2 SLP154 T02780156 10306 20278 55003
KCVG - Covington, Kentucky, USA
Distance from station: SSW 42mi, 67km
Updated: Wed, 18-Jul-2018 7:52pm EDT
Few Clouds
Few Clouds
 Wind from E
Wind: E 12 mph , 19 km/h
Temperature: 82°F , 28°C
Heat Index: 81°F , 27°C
Dew Point: 55°F , 13°C
Humidity: 40%
Barometer: 30.00 inHg , 1015.9 hPa
Clouds: Few Clouds
Visibility: 10 miles , 16 km
Cloud details: Few Clouds 7000 ft
Few Clouds 30000 ft
2018/07/18 23:52 KCVG 182352Z 09010KT 10SM FEW070 FEW300 28/13 A3000 RMK AO2 SLP148 T02780128 10311 20278 55005
 
KVES - Versailles, Ohio, USA
Distance from station: NNW 47mi, 76km
Updated: Wed, 18-Jul-2018 7:55pm EDT
Mostly cloudy
Mostly cloudy
 Wind from calm
Wind: Calm
Temperature: 75°F , 24°C
Dew Point: 59°F , 15°C
Humidity: 57%
Barometer: 30.03 inHg , 1016.9 hPa
Clouds: Mostly cloudy
Visibility: 10 miles , 16 km
Cloud details: Mostly cloudy 6000 ft
2018/07/18 23:55 KVES 182355Z AUTO 00000KT 10SM BKN060 24/15 A3003 RMK AO2